Beaumont, California
Current Conditions -  °F | °C
As of 11:58 PM on Wednesday 17 Dec 2014 (Local Time) from KRIV Reporting Station
Scattered Clouds Scattered Clouds  
Wind Chill: 46°   Ceiling: Unl
Heat Index: 46°   Visibility: 10mi
Dew Point: 46°   Wind: 3mph
Humidity: 100%   Direction: 120°ESE
Pressure: 30.12"   Gusts: NA
Location:  33.93°N, 116.97°W
Report Text: KRIV 180758Z AUTO 12003KT 10SM SCT200 08/08 A3012 RMK AO2 SLP199 T00790079 401470078
Loading
Personal Weather Stations






























Interactive Weather Map New forecast layout! Learn more

10-Day Weather Forecast

Advertisements
Track Severe Weather on mobile